Time;durP1;ratioP1;P1;durP2;ratioP2;P2;SDS_P1;SDS_P2;PMS_P1;PMS_P2;Temp;Humidity;BMP_temperature;BMP_pressure;BME280_temperature;BME280_humidity;BME280_pressure;Samples;Min_cycle;Max_cycle;Signal;HPM_P1;HPM_P2
2021/08/19 00:00:13;;;;;;;;;;;;;;;24.22;61.23;100655.50;5080568;28;1590;-66
2021/08/19 00:02:39;;;;;;;;;;;;;;;24.21;61.40;100650.25;5085576;28;1517;-63
2021/08/19 00:05:06;;;;;;;;;;;;;;;24.18;62.06;100651.47;5088835;28;1717;-63
2021/08/19 00:07:33;;;;;;;;;;;;;;;24.14;61.76;100655.53;5086547;28;1324;-63
2021/08/19 00:10:01;;;;;;;;;;;;;;;24.17;62.13;100676.81;5082535;28;1543;-65
2021/08/19 00:12:28;;;;;;;;;;;;;;;24.15;61.26;100657.22;5088856;28;1602;-63
2021/08/19 00:14:54;;;;;;;;;;;;;;;24.20;61.08;100654.84;5093155;28;1648;-63
2021/08/19 00:17:21;;;;;;;;;;;;;;;24.25;61.36;100659.72;5093061;28;1973;-63
2021/08/19 00:19:48;;;;;;;;;;;;;;;24.17;60.76;100663.31;5088871;28;1426;-64
2021/08/19 00:22:14;;;;;;;;;;;;;;;24.13;60.65;100672.75;5074006;28;1357;-63
2021/08/19 00:24:41;;;;;;;;;;;;;;;23.98;61.38;100671.78;5078833;28;1536;-65
2021/08/19 00:27:09;;;;;;;;;;;;;;;24.03;60.74;100685.59;5086876;28;1489;-66
2021/08/19 00:29:36;;;;;;;;;;;;;;;23.91;61.09;100681.56;5086917;28;1497;-66
2021/08/19 00:32:04;;;;;;;;;;;;;;;23.97;61.94;100687.13;5093791;28;1618;-66
2021/08/19 00:34:30;;;;;;;;;;;;;;;23.97;61.32;100695.25;5081543;28;1701;-67
2021/08/19 00:36:57;;;;;;;;;;;;;;;23.90;61.75;100693.38;5082716;28;1910;-63
2021/08/19 00:39:24;;;;;;;;;;;;;;;23.79;60.59;100697.25;5092689;28;1556;-63
2021/08/19 00:41:50;;;;;;;;;;;;;;;23.72;61.76;100712.44;5082365;28;1599;-67
2021/08/19 00:44:18;;;;;;;;;;;;;;;23.68;61.00;100703.81;5085122;28;1489;-63
2021/08/19 00:46:45;;;;;;;;;;;;;;;23.55;61.60;100698.06;5093365;28;981;-63
2021/08/19 00:49:12;;;;;;;;;;;;;;;23.63;61.11;100693.53;5092782;28;1909;-66
2021/08/19 00:51:40;;;;;;;;;;;;;;;23.69;60.90;100692.00;5089565;28;1612;-63
2021/08/19 00:54:07;;;;;;;;;;;;;;;23.25;61.98;100700.38;5079657;28;1541;-63
2021/08/19 00:56:35;;;;;;;;;;;;;;;23.48;61.51;100705.16;5093270;28;1969;-63
2021/08/19 00:59:02;;;;;;;;;;;;;;;23.51;61.00;100692.16;5093109;28;969;-63
2021/08/19 01:01:32;;;;;;;;;;;;;;;23.50;60.90;100678.84;5081577;28;1730;-66
2021/08/19 01:03:59;;;;;;;;;;;;;;;23.49;60.84;100674.44;5075348;28;1562;-63
2021/08/19 01:06:25;;;;;;;;;;;;;;;23.55;60.94;100681.88;5093336;28;995;-66
2021/08/19 01:08:53;;;;;;;;;;;;;;;23.52;61.06;100674.97;5092121;28;1635;-66
2021/08/19 01:11:20;;;;;;;;;;;;;;;23.56;61.04;100680.88;5088410;28;1543;-63
2021/08/19 01:13:47;;;;;;;;;;;;;;;23.49;61.39;100679.84;5074471;28;1499;-66
2021/08/19 01:16:14;;;;;;;;;;;;;;;23.48;61.17;100680.88;5092099;28;1969;-63
2021/08/19 01:18:43;;;;;;;;;;;;;;;23.52;61.03;100684.91;5083162;28;1300;-63
2021/08/19 01:21:11;;;;;;;;;;;;;;;23.60;60.82;100687.63;5091677;28;1557;-63
2021/08/19 01:23:37;;;;;;;;;;;;;;;23.53;60.94;100682.03;5091970;28;1505;-63
2021/08/19 01:26:07;;;;;;;;;;;;;;;23.54;60.78;100664.84;5090727;28;1473;-65
2021/08/19 01:28:35;;;;;;;;;;;;;;;23.52;61.01;100674.13;5074845;28;1460;-66
2021/08/19 01:31:01;;;;;;;;;;;;;;;23.58;60.77;100689.63;5084531;28;1587;-63
2021/08/19 01:33:28;;;;;;;;;;;;;;;23.58;60.88;100689.63;5084103;28;1462;-63
2021/08/19 01:35:54;;;;;;;;;;;;;;;23.65;60.69;100684.41;5080215;28;1913;-63
2021/08/19 01:38:28;;;;;;;;;;;;;;;23.60;61.45;100682.22;5090893;28;1499;-66
2021/08/19 01:40:55;;;;;;;;;;;;;;;23.55;61.16;100689.97;5076964;28;1467;-66
2021/08/19 01:43:22;;;;;;;;;;;;;;;23.50;61.15;100684.25;5088631;28;1750;-66
2021/08/19 01:45:50;;;;;;;;;;;;;;;23.55;61.34;100695.34;5091841;28;1804;-66
2021/08/19 01:48:16;;;;;;;;;;;;;;;23.63;61.12;100682.72;5092665;28;1015;-63
2021/08/19 01:50:43;;;;;;;;;;;;;;;23.66;60.74;100678.84;5077087;28;1553;-66
2021/08/19 01:53:10;;;;;;;;;;;;;;;23.59;60.69;100694.00;5087381;28;1832;-66
2021/08/19 01:55:37;;;;;;;;;;;;;;;23.66;60.41;100695.03;5092949;28;1536;-66
2021/08/19 01:58:04;;;;;;;;;;;;;;;23.67;60.91;100698.56;5085561;28;1517;-63
2021/08/19 02:03:17;;;;;;;;;;;;;;;23.71;60.33;100706.16;4831618;26;2837;-54
2021/08/19 02:05:48;;;;;;;;;;;;;;;23.65;60.71;100704.13;5072522;28;1802;-54
2021/08/19 02:08:25;;;;;;;;;;;;;;;23.61;60.69;100694.69;5055484;28;1697;-55
2021/08/19 02:10:53;;;;;;;;;;;;;;;23.67;60.05;100687.78;5073837;28;1099;-54
2021/08/19 02:13:22;;;;;;;;;;;;;;;23.66;60.14;100691.50;5075600;28;1070;-54
2021/08/19 02:15:54;;;;;;;;;;;;;;;23.62;59.93;100680.19;5074691;28;1905;-54
2021/08/19 02:18:30;;;;;;;;;;;;;;;23.68;60.08;100687.63;5075296;28;1679;-54
2021/08/19 02:20:58;;;;;;;;;;;;;;;23.76;60.16;100703.81;5075309;28;1737;-52
2021/08/19 02:23:24;;;;;;;;;;;;;;;23.77;59.67;100683.91;5074287;28;1462;-52
2021/08/19 02:28:39;;;;;;;;;;;;;;;23.76;60.02;100684.91;5070742;28;2510;-52
2021/08/19 02:31:07;;;;;;;;;;;;;;;23.75;60.39;100691.31;5074346;28;1543;-52
2021/08/19 02:33:42;;;;;;;;;;;;;;;23.74;59.76;100695.03;5071291;28;1379;-52
2021/08/19 02:36:09;;;;;;;;;;;;;;;23.76;59.77;100703.81;5073562;28;2001;-52
2021/08/19 02:38:38;;;;;;;;;;;;;;;23.77;59.46;100686.63;5075062;28;1598;-52
2021/08/19 02:41:06;;;;;;;;;;;;;;;23.81;59.99;100698.78;5074907;28;1744;-52
2021/08/19 02:46:14;;;;;;;;;;;;;;;23.79;59.70;100699.97;5068618;28;2252;-52
2021/08/19 02:48:49;;;;;;;;;;;;;;;23.78;60.27;100706.38;5074509;28;1952;-52
2021/08/19 02:51:16;;;;;;;;;;;;;;;23.81;59.77;100711.44;5074766;28;1102;-52
2021/08/19 02:53:46;;;;;;;;;;;;;;;23.84;60.09;100707.56;5074245;28;1687;-52
2021/08/19 02:56:14;;;;;;;;;;;;;;;23.81;59.95;100717.69;5074060;28;1910;-52
2021/08/19 02:58:41;;;;;;;;;;;;;;;23.82;59.68;100724.78;5072932;28;2191;-52
2021/08/19 03:01:08;;;;;;;;;;;;;;;23.77;60.60;100732.53;5070651;28;2027;-52
2021/08/19 03:03:35;;;;;;;;;;;;;;;23.76;60.54;100724.59;5069743;28;1397;-52
2021/08/19 03:06:08;;;;;;;;;;;;;;;23.81;60.11;100733.03;5073539;28;1828;-52
2021/08/19 03:08:44;;;;;;;;;;;;;;;23.78;60.86;100725.28;5067745;28;2400;-52
2021/08/19 03:11:11;;;;;;;;;;;;;;;23.86;60.43;100727.16;5071102;28;1799;-52
2021/08/19 03:13:47;;;;;;;;;;;;;;;23.82;60.49;100735.56;5074198;28;1620;-53
2021/08/19 03:16:19;;;;;;;;;;;;;;;23.87;60.18;100723.41;5074098;28;1909;-50
2021/08/19 03:18:48;;;;;;;;;;;;;;;23.93;59.82;100731.69;5074629;28;1990;-52
2021/08/19 03:24:20;;;;;;;;;;;;;;;24.11;60.33;100723.41;5074161;28;2438;-51
2021/08/19 03:26:56;;;;;;;;;;;;;;;24.12;60.32;100708.88;5074573;28;1033;-51
2021/08/19 03:29:23;;;;;;;;;;;;;;;24.12;60.43;100710.75;5073482;28;1948;-51
2021/08/19 03:31:58;;;;;;;;;;;;;;;24.11;60.00;100712.59;5072840;28;1572;-51
2021/08/19 03:34:26;;;;;;;;;;;;;;;24.21;60.20;100702.47;5072807;28;1748;-52
2021/08/19 03:36:54;;;;;;;;;;;;;;;24.28;59.63;100723.41;5071180;28;1945;-51
2021/08/19 03:39:40;;;;;;;;;;;;;;;24.32;60.48;100730.16;5070831;28;1544;-51
2021/08/19 03:42:12;;;;;;;;;;;;;;;24.25;60.33;100739.94;5069163;28;1512;-51
2021/08/19 03:44:41;;;;;;;;;;;;;;;24.24;59.83;100733.69;5071272;28;1501;-51
2021/08/19 03:47:11;;;;;;;;;;;;;;;24.24;60.20;100727.47;5071283;28;1381;-50
2021/08/19 03:49:40;;;;;;;;;;;;;;;24.26;59.59;100725.44;5065230;28;1502;-50
2021/08/19 03:52:08;;;;;;;;;;;;;;;24.25;59.92;100737.25;5060408;28;1945;-50
2021/08/19 03:54:38;;;;;;;;;;;;;;;24.35;60.08;100746.00;5072927;28;1466;-50
2021/08/19 03:57:06;;;;;;;;;;;;;;;24.31;59.48;100734.72;5067464;28;1967;-50
2021/08/19 03:59:43;;;;;;;;;;;;;;;24.25;59.63;100754.28;5068057;28;1611;-50
2021/08/19 04:02:09;;;;;;;;;;;;;;;24.27;60.25;100764.94;5069903;28;2549;-50
2021/08/19 04:04:36;;;;;;;;;;;;;;;24.32;60.46;100765.28;5072964;28;2210;-50
2021/08/19 04:07:08;;;;;;;;;;;;;;;24.20;60.11;100759.38;5071171;28;1544;-50
2021/08/19 04:09:35;;;;;;;;;;;;;;;24.24;59.81;100770.69;5066067;28;1665;-50
2021/08/19 04:12:03;;;;;;;;;;;;;;;24.19;60.42;100773.88;5070021;28;1900;-50
2021/08/19 04:14:31;;;;;;;;;;;;;;;24.19;60.01;100780.16;5066952;28;1517;-52
2021/08/19 04:17:02;;;;;;;;;;;;;;;24.26;60.33;100774.91;5070730;28;1906;-51
2021/08/19 04:19:31;;;;;;;;;;;;;;;24.14;60.15;100782.50;5069285;28;1564;-50
2021/08/19 04:21:57;;;;;;;;;;;;;;;24.13;60.15;100788.06;5067223;28;1543;-50
2021/08/19 04:24:24;;;;;;;;;;;;;;;24.08;60.51;100788.59;5070965;28;1684;-51
2021/08/19 04:26:52;;;;;;;;;;;;;;;24.05;60.27;100786.22;5067228;28;1242;-50
2021/08/19 04:29:19;;;;;;;;;;;;;;;24.12;60.69;100787.25;5070584;28;1164;-50
2021/08/19 04:34:35;;;;;;;;;;;;;;;24.18;60.62;100788.41;5067868;28;2285;-50
2021/08/19 04:37:09;;;;;;;;;;;;;;;24.14;60.39;100787.91;5070869;28;1913;-50
2021/08/19 04:39:43;;;;;;;;;;;;;;;24.15;60.05;100773.41;5070993;28;1674;-50
2021/08/19 04:42:12;;;;;;;;;;;;;;;24.23;59.82;100780.63;5059790;28;1508;-50
2021/08/19 04:44:42;;;;;;;;;;;;;;;24.24;60.37;100795.84;5070484;28;1820;-50
2021/08/19 04:47:09;;;;;;;;;;;;;;;24.22;59.85;100777.09;5072741;28;1267;-50
2021/08/19 04:49:38;;;;;;;;;;;;;;;24.27;59.97;100781.16;5071139;28;1967;-50
2021/08/19 04:52:07;;;;;;;;;;;;;;;24.22;60.21;100784.38;5067366;28;1830;-50
2021/08/19 04:54:36;;;;;;;;;;;;;;;24.22;59.85;100781.66;5071361;28;1615;-50
2021/08/19 04:57:03;;;;;;;;;;;;;;;24.24;59.80;100773.41;5068421;28;1910;-50
2021/08/19 04:59:31;;;;;;;;;;;;;;;24.21;59.85;100790.78;5067183;28;1567;-51
2021/08/19 05:02:01;;;;;;;;;;;;;;;24.15;60.35;100778.81;5051084;28;1481;-50
2021/08/19 05:04:30;;;;;;;;;;;;;;;24.10;60.23;100802.78;5062901;28;1780;-50
2021/08/19 05:07:01;;;;;;;;;;;;;;;24.17;59.95;100792.13;5071353;28;1685;-51
2021/08/19 05:09:29;;;;;;;;;;;;;;;24.04;60.14;100798.03;5068996;28;1939;-51
2021/08/19 05:12:02;;;;;;;;;;;;;;;24.00;61.16;100821.00;5069698;28;1765;-50
2021/08/19 05:14:32;;;;;;;;;;;;;;;23.97;61.73;100807.81;5062079;28;1664;-51
2021/08/19 05:17:02;;;;;;;;;;;;;;;24.05;61.35;100810.53;5071088;28;1969;-51
2021/08/19 05:19:33;;;;;;;;;;;;;;;24.09;61.15;100805.63;5064946;28;1967;-50
2021/08/19 05:22:02;;;;;;;;;;;;;;;24.16;61.51;100801.25;5070860;28;1914;-50
2021/08/19 05:24:31;;;;;;;;;;;;;;;24.02;61.49;100809.00;5071281;28;1606;-51
2021/08/19 05:27:00;;;;;;;;;;;;;;;24.09;61.00;100811.88;5069195;28;1904;-50
2021/08/19 05:29:26;;;;;;;;;;;;;;;24.10;61.46;100808.19;5067561;28;1955;-50
2021/08/19 05:31:53;;;;;;;;;;;;;;;24.11;60.60;100811.72;5061074;28;1848;-52
2021/08/19 05:34:23;;;;;;;;;;;;;;;23.97;61.58;100802.41;5063928;28;1519;-50
2021/08/19 05:36:50;;;;;;;;;;;;;;;23.93;61.05;100828.06;5069361;28;2001;-51
2021/08/19 05:39:19;;;;;;;;;;;;;;;23.98;60.85;100814.94;5063973;28;1868;-50
2021/08/19 05:41:49;;;;;;;;;;;;;;;24.06;60.68;100817.63;5059743;28;1994;-51
2021/08/19 05:44:16;;;;;;;;;;;;;;;24.06;60.51;100825.72;5064916;28;1519;-51
2021/08/19 05:46:44;;;;;;;;;;;;;;;24.09;60.89;100817.28;5069434;28;1643;-50
2021/08/19 05:49:12;;;;;;;;;;;;;;;24.21;60.55;100832.16;5070614;28;1810;-51
2021/08/19 05:51:39;;;;;;;;;;;;;;;24.25;59.85;100826.41;5071065;28;1961;-52
2021/08/19 05:54:07;;;;;;;;;;;;;;;24.39;60.88;100826.59;5060379;28;1600;-52
2021/08/19 05:56:35;;;;;;;;;;;;;;;24.43;62.86;100829.78;5055030;28;1891;-52
2021/08/19 05:59:01;;;;;;;;;;;;;;;24.42;61.81;100837.03;5064312;28;1973;-52
2021/08/19 06:01:28;;;;;;;;;;;;;;;24.40;63.40;100833.66;5054696;28;1487;-53
2021/08/19 06:03:54;;;;;;;;;;;;;;;24.37;63.76;100834.03;5049592;28;1337;-52
2021/08/19 06:06:21;;;;;;;;;;;;;;;24.36;64.13;100834.19;5052627;28;1001;-52
2021/08/19 06:08:47;;;;;;;;;;;;;;;24.37;63.89;100835.88;5053345;28;1102;-52
2021/08/19 06:11:14;;;;;;;;;;;;;;;24.38;64.16;100833.00;5053365;28;1028;-52
2021/08/19 06:13:42;;;;;;;;;;;;;;;24.36;63.92;100817.97;5052983;28;1088;-52
2021/08/19 06:16:08;;;;;;;;;;;;;;;24.43;64.75;100832.47;5052092;28;1081;-52
2021/08/19 06:18:34;;;;;;;;;;;;;;;24.40;64.70;100824.72;5053179;28;1992;-52
2021/08/19 06:21:01;;;;;;;;;;;;;;;24.40;64.85;100835.53;5053256;28;1010;-52
2021/08/19 06:23:27;;;;;;;;;;;;;;;24.40;65.07;100838.25;5053176;28;2067;-52
2021/08/19 06:25:54;;;;;;;;;;;;;;;24.42;64.89;100836.22;5052912;28;1091;-52
2021/08/19 06:28:24;;;;;;;;;;;;;;;24.43;64.32;100832.47;5053421;28;1039;-52
2021/08/19 06:30:52;;;;;;;;;;;;;;;24.46;64.26;100832.16;5052847;28;1079;-52
2021/08/19 06:33:19;;;;;;;;;;;;;;;24.47;64.55;100846.50;5053112;28;1078;-52
2021/08/19 06:35:45;;;;;;;;;;;;;;;24.48;64.79;100843.63;5053306;28;1044;-52
2021/08/19 06:38:14;;;;;;;;;;;;;;;24.49;64.06;100845.34;5053612;28;1973;-52
2021/08/19 06:40:40;;;;;;;;;;;;;;;24.51;64.51;100832.53;5052769;28;1131;-52
2021/08/19 06:43:07;;;;;;;;;;;;;;;24.48;64.08;100832.81;5056589;28;1026;-52
2021/08/19 06:45:33;;;;;;;;;;;;;;;24.50;64.47;100855.16;5056916;28;993;-52
2021/08/19 06:48:01;;;;;;;;;;;;;;;24.49;64.35;100833.66;5056613;28;1061;-52
2021/08/19 06:50:27;;;;;;;;;;;;;;;24.51;63.83;100845.19;5056553;28;1011;-52
2021/08/19 06:52:54;;;;;;;;;;;;;;;24.51;64.85;100854.16;5056624;28;1050;-52
2021/08/19 06:55:21;;;;;;;;;;;;;;;24.52;64.12;100853.13;5056427;28;985;-52
2021/08/19 06:57:47;;;;;;;;;;;;;;;24.58;63.94;100854.31;5056306;28;1977;-52
2021/08/19 07:00:14;;;;;;;;;;;;;;;24.58;64.21;100860.56;5056039;28;1102;-52
2021/08/19 07:02:41;;;;;;;;;;;;;;;24.54;63.85;100867.31;5054865;28;1482;-52
2021/08/19 07:05:09;;;;;;;;;;;;;;;24.58;63.89;100865.13;5055940;28;1118;-52
2021/08/19 07:07:35;;;;;;;;;;;;;;;24.57;64.06;100864.28;5056217;28;1078;-52
2021/08/19 07:10:03;;;;;;;;;;;;;;;24.61;64.27;100867.47;5056172;28;1085;-52
2021/08/19 07:12:29;;;;;;;;;;;;;;;24.59;63.37;100867.66;5056161;28;1089;-52
2021/08/19 07:14:56;;;;;;;;;;;;;;;24.60;63.85;100863.09;5055806;28;1098;-52
2021/08/19 07:17:22;;;;;;;;;;;;;;;24.59;63.30;100861.41;5055623;28;1906;-52
2021/08/19 07:19:49;;;;;;;;;;;;;;;24.61;63.90;100883.69;5055678;28;1021;-52
2021/08/19 07:22:17;;;;;;;;;;;;;;;24.61;63.92;100860.22;5055955;28;1088;-52
2021/08/19 07:24:43;;;;;;;;;;;;;;;24.61;62.89;100864.78;5055605;28;1345;-52
2021/08/19 07:27:10;;;;;;;;;;;;;;;24.67;63.19;100874.06;5055477;28;1127;-52
2021/08/19 07:29:36;;;;;;;;;;;;;;;24.69;62.89;100872.91;5056266;28;1046;-52
2021/08/19 07:32:03;;;;;;;;;;;;;;;24.68;63.17;100865.78;5055767;28;1073;-52
2021/08/19 07:34:30;;;;;;;;;;;;;;;24.70;63.04;100874.56;5055742;28;1084;-52
2021/08/19 07:36:56;;;;;;;;;;;;;;;24.68;62.63;100859.53;5055749;28;1077;-52
2021/08/19 07:39:24;;;;;;;;;;;;;;;24.67;62.45;100853.31;5055321;28;1971;-52
2021/08/19 07:41:50;;;;;;;;;;;;;;;24.69;62.80;100853.97;5055616;28;1069;-52
2021/08/19 07:44:17;;;;;;;;;;;;;;;24.72;62.56;100866.31;5055312;28;1091;-52
2021/08/19 07:46:43;;;;;;;;;;;;;;;24.71;62.68;100868.16;5055539;28;1041;-52
2021/08/19 07:49:10;;;;;;;;;;;;;;;24.75;62.79;100871.34;5055715;28;1084;-52
2021/08/19 07:51:36;;;;;;;;;;;;;;;24.72;62.50;100858.19;5055395;28;1015;-52
2021/08/19 07:54:03;;;;;;;;;;;;;;;24.72;62.42;100872.53;5055001;28;1149;-52
2021/08/19 07:56:31;;;;;;;;;;;;;;;24.75;62.22;100861.41;5055288;28;1077;-52
2021/08/19 07:58:58;;;;;;;;;;;;;;;24.74;62.17;100866.97;5055168;28;1909;-52
2021/08/19 08:01:25;;;;;;;;;;;;;;;24.79;62.63;100865.44;5055167;28;1467;-52
2021/08/19 08:03:51;;;;;;;;;;;;;;;24.76;62.50;100876.59;5053810;28;1282;-52
2021/08/19 08:06:18;;;;;;;;;;;;;;;24.82;61.87;100864.25;5054783;28;1146;-52
2021/08/19 08:08:45;;;;;;;;;;;;;;;24.78;62.69;100868.31;5055116;28;1088;-52
2021/08/19 08:11:11;;;;;;;;;;;;;;;24.81;62.21;100859.88;5054764;28;1051;-52
2021/08/19 08:13:39;;;;;;;;;;;;;;;24.85;62.78;100872.03;5055012;28;995;-52
2021/08/19 08:16:06;;;;;;;;;;;;;;;24.83;62.02;100854.25;5054937;28;1085;-52
2021/08/19 08:18:32;;;;;;;;;;;;;;;24.84;62.12;100850.56;5054633;28;1907;-52
2021/08/19 08:21:00;;;;;;;;;;;;;;;24.79;61.98;100837.56;5054550;28;953;-52
2021/08/19 08:23:32;;;;;;;;;;;;;;;24.83;62.55;100856.97;5055196;28;1072;-52
2021/08/19 08:25:58;;;;;;;;;;;;;;;24.81;62.17;100838.25;5054477;28;1063;-52
2021/08/19 08:28:28;;;;;;;;;;;;;;;24.81;62.59;100833.66;5054407;28;1123;-52
2021/08/19 08:30:56;;;;;;;;;;;;;;;24.84;62.05;100848.69;5054642;28;999;-52
2021/08/19 08:33:23;;;;;;;;;;;;;;;24.87;62.59;100863.72;5054599;28;954;-52
2021/08/19 08:35:51;;;;;;;;;;;;;;;24.85;62.33;100839.56;5054516;28;1054;-52
2021/08/19 08:38:18;;;;;;;;;;;;;;;24.84;62.87;100843.28;5054888;28;1910;-52
2021/08/19 08:40:46;;;;;;;;;;;;;;;24.82;62.04;100845.31;5054147;28;1181;-52
2021/08/19 08:43:14;;;;;;;;;;;;;;;24.84;61.70;100843.28;5054036;28;1163;-52
2021/08/19 08:45:41;;;;;;;;;;;;;;;24.86;62.67;100835.00;5054154;28;1126;-52
2021/08/19 08:48:10;;;;;;;;;;;;;;;24.92;62.52;100845.97;5054047;28;1174;-52
2021/08/19 08:50:39;;;;;;;;;;;;;;;24.88;62.16;100843.78;5054294;28;1061;-52
2021/08/19 08:53:05;;;;;;;;;;;;;;;24.86;62.34;100830.44;5053960;28;1162;-52
2021/08/19 08:55:32;;;;;;;;;;;;;;;24.87;62.13;100832.13;5054132;28;1147;-52
2021/08/19 08:57:59;;;;;;;;;;;;;;;24.88;61.60;100822.97;5054146;28;1910;-52
2021/08/19 09:00:26;;;;;;;;;;;;;;;24.91;62.38;100822.66;5053825;28;1127;-52
2021/08/19 09:02:52;;;;;;;;;;;;;;;24.92;61.42;100835.16;5052643;28;1772;-52
2021/08/19 09:05:21;;;;;;;;;;;;;;;24.91;61.67;100833.47;5053546;28;1092;-52
2021/08/19 09:07:52;;;;;;;;;;;;;;;24.94;62.08;100826.88;5053722;28;1091;-52
2021/08/19 09:10:18;;;;;;;;;;;;;;;24.92;62.19;100829.72;5053968;28;1085;-52
2021/08/19 09:12:45;;;;;;;;;;;;;;;24.93;61.25;100819.75;5053887;28;1078;-52
2021/08/19 09:15:13;;;;;;;;;;;;;;;24.92;61.59;100818.91;5054182;28;997;-52
2021/08/19 09:17:43;;;;;;;;;;;;;;;24.99;62.28;100827.19;5053815;28;1019;-52
2021/08/19 09:20:10;;;;;;;;;;;;;;;24.94;61.31;100818.75;5053756;28;1902;-52
2021/08/19 09:22:54;;;;;;;;;;;;;;;24.98;61.69;100814.69;5053499;28;1134;-52
2021/08/19 09:25:25;;;;;;;;;;;;;;;24.93;61.58;100819.75;5053756;28;1067;-52
2021/08/19 09:28:06;;;;;;;;;;;;;;;24.97;62.24;100821.97;5053423;28;1110;-52
2021/08/19 09:30:33;;;;;;;;;;;;;;;24.94;61.94;100808.75;5053948;28;1910;-52
2021/08/19 09:32:59;;;;;;;;;;;;;;;24.93;61.79;100809.78;5053395;28;1067;-52
2021/08/19 09:35:26;;;;;;;;;;;;;;;24.96;61.36;100820.25;5053704;28;1001;-52
2021/08/19 09:37:54;;;;;;;;;;;;;;;24.94;62.26;100808.75;5053375;28;1066;-52
2021/08/19 09:40:20;;;;;;;;;;;;;;;24.93;61.99;100801.69;5053249;28;1975;-52
2021/08/19 09:42:47;;;;;;;;;;;;;;;25.00;62.07;100818.88;5053518;28;990;-52
2021/08/19 09:45:20;;;;;;;;;;;;;;;25.00;62.47;100824.28;5053607;28;1006;-52
2021/08/19 09:47:46;;;;;;;;;;;;;;;24.99;62.46;100814.50;5053592;28;1023;-52
2021/08/19 09:50:13;;;;;;;;;;;;;;;24.99;62.27;100824.50;5053526;28;1002;-52
2021/08/19 09:52:40;;;;;;;;;;;;;;;24.99;62.22;100813.66;5053505;28;1003;-52
2021/08/19 09:55:21;;;;;;;;;;;;;;;24.99;61.61;100806.38;5053129;28;1173;-52
2021/08/19 09:57:48;;;;;;;;;;;;;;;25.00;61.47;100808.06;5053499;28;983;-52
2021/08/19 10:00:22;;;;;;;;;;;;;;;25.02;62.33;100814.13;5053084;28;1976;-52
2021/08/19 10:02:49;;;;;;;;;;;;;;;25.01;61.44;100808.94;5051698;28;1400;-52
2021/08/19 10:05:16;;;;;;;;;;;;;;;25.02;61.55;100806.03;5053332;28;1011;-52
2021/08/19 10:07:43;;;;;;;;;;;;;;;25.04;62.05;100819.38;5052996;28;1133;-52
2021/08/19 10:10:10;;;;;;;;;;;;;;;25.05;61.35;100801.28;5053387;28;1070;-52
2021/08/19 10:12:41;;;;;;;;;;;;;;;25.06;62.03;100811.09;5053336;28;1015;-52
2021/08/19 10:15:08;;;;;;;;;;;;;;;25.06;61.19;100792.16;5053287;28;1045;-52
2021/08/19 10:17:35;;;;;;;;;;;;;;;25.06;62.09;100802.97;5055575;28;1079;-52
2021/08/19 10:20:04;;;;;;;;;;;;;;;25.02;61.63;100794.38;5056769;28;1905;-52
2021/08/19 10:22:34;;;;;;;;;;;;;;;25.04;62.39;100789.63;5057121;28;1084;-52
2021/08/19 10:25:02;;;;;;;;;;;;;;;25.08;61.66;100799.06;5056734;28;1236;-52
2021/08/19 10:27:29;;;;;;;;;;;;;;;25.06;61.54;100787.59;5056989;28;962;-52
2021/08/19 10:29:59;;;;;;;;;;;;;;;25.06;62.29;100768.66;5056632;28;1095;-53
2021/08/19 10:32:28;;;;;;;;;;;;;;;25.06;62.02;100781.34;5056938;28;1023;-52
2021/08/19 10:34:56;;;;;;;;;;;;;;;25.09;61.47;100786.38;5056891;28;1070;-52
2021/08/19 10:37:43;;;;;;;;;;;;;;;25.06;61.39;100767.81;5056867;28;1082;-52
2021/08/19 10:40:25;;;;;;;;;;;;;;;25.07;61.95;100769.47;5056295;28;2131;-52
2021/08/19 10:42:54;;;;;;;;;;;;;;;25.07;62.17;100773.06;5056274;28;1706;-52
2021/08/19 10:45:50;;;;;;;;;;;;;;;25.07;62.08;100762.22;5056669;28;1085;-52
2021/08/19 10:48:24;;;;;;;;;;;;;;;25.06;62.17;100763.22;5054293;28;1135;-52
2021/08/19 10:50:50;;;;;;;;;;;;;;;25.08;62.02;100773.88;5056111;28;1007;-52
2021/08/19 10:53:18;;;;;;;;;;;;;;;25.08;61.23;100761.19;5056255;28;1055;-52
2021/08/19 10:55:45;;;;;;;;;;;;;;;25.07;61.84;100758.66;5056092;28;1268;-52
2021/08/19 10:58:25;;;;;;;;;;;;;;;25.06;61.68;100767.81;5056420;28;983;-52
2021/08/19 11:00:52;;;;;;;;;;;;;;;25.07;62.09;100769.47;5056135;28;1913;-52
2021/08/19 11:03:37;;;;;;;;;;;;;;;25.09;62.13;100770.16;5054564;28;1412;-52
2021/08/19 11:06:05;;;;;;;;;;;;;;;25.08;61.69;100752.25;5055972;28;1161;-52
2021/08/19 11:08:54;;;;;;;;;;;;;;;25.07;62.06;100750.53;5055939;28;1087;-52
2021/08/19 11:11:30;;;;;;;;;;;;;;;25.11;62.01;100746.47;5055596;28;2110;-53
2021/08/19 11:14:04;;;;;;;;;;;;;;;25.10;62.32;100758.31;5055852;28;1103;-53
2021/08/19 11:16:31;;;;;;;;;;;;;;;25.12;61.98;100731.94;5055794;28;1099;-52
2021/08/19 11:19:11;;;;;;;;;;;;;;;25.05;61.62;100741.75;5055865;28;1978;-53
2021/08/19 11:21:39;;;;;;;;;;;;;;;25.10;61.93;100742.91;5055690;28;1179;-52
2021/08/19 11:24:07;;;;;;;;;;;;;;;25.11;62.17;100739.22;5056005;28;1071;-52
2021/08/19 11:26:34;;;;;;;;;;;;;;;25.08;62.02;100736.00;5055632;28;1094;-52
2021/08/19 11:29:00;;;;;;;;;;;;;;;25.10;62.22;100736.69;5055152;28;1091;-52
2021/08/19 11:31:27;;;;;;;;;;;;;;;25.06;61.71;100730.75;5055784;28;1049;-53
2021/08/19 11:33:58;;;;;;;;;;;;;;;25.12;62.26;100734.63;5055527;28;1103;-52
2021/08/19 11:36:24;;;;;;;;;;;;;;;25.12;62.00;100735.47;5055464;28;1091;-52
2021/08/19 11:38:57;;;;;;;;;;;;;;;25.12;61.69;100721.09;5055297;28;1905;-52
2021/08/19 11:41:23;;;;;;;;;;;;;;;25.13;61.09;100730.91;5055366;28;1066;-53
2021/08/19 11:43:50;;;;;;;;;;;;;;;25.14;62.27;100721.78;5055518;28;989;-53
2021/08/19 11:46:19;;;;;;;;;;;;;;;25.14;62.03;100727.19;5055244;28;1261;-53
2021/08/19 11:48:48;;;;;;;;;;;;;;;25.13;62.22;100717.41;5055525;28;1007;-53
2021/08/19 11:51:20;;;;;;;;;;;;;;;25.11;61.90;100714.00;5055485;28;1059;-52
2021/08/19 11:53:49;;;;;;;;;;;;;;;25.15;61.57;100699.94;5055593;28;1046;-53
2021/08/19 11:56:18;;;;;;;;;;;;;;;25.11;61.39;100711.28;5055343;28;1096;-52
2021/08/19 11:58:44;;;;;;;;;;;;;;;25.17;61.53;100705.19;5055344;28;1097;-52
2021/08/19 12:01:11;;;;;;;;;;;;;;;25.15;61.95;100704.53;5054825;28;1416;-52
2021/08/19 12:03:45;;;;;;;;;;;;;;;25.16;61.48;100698.91;5053646;28;1243;-53
2021/08/19 12:06:12;;;;;;;;;;;;;;;25.14;62.20;100703.66;5054809;28;1095;-53
2021/08/19 12:08:40;;;;;;;;;;;;;;;25.14;62.13;100703.66;5054766;28;1064;-52
2021/08/19 12:11:08;;;;;;;;;;;;;;;25.12;61.64;100694.03;5055070;28;997;-52
2021/08/19 12:13:36;;;;;;;;;;;;;;;25.12;62.02;100675.94;5055303;28;1044;-52
2021/08/19 12:16:03;;;;;;;;;;;;;;;25.12;62.33;100688.63;5054986;28;1051;-53
2021/08/19 12:18:29;;;;;;;;;;;;;;;25.14;61.54;100692.00;5054943;28;1092;-53
2021/08/19 12:21:12;;;;;;;;;;;;;;;25.17;61.75;100686.25;5054516;28;1906;-52
2021/08/19 12:23:39;;;;;;;;;;;;;;;25.15;62.03;100677.47;5054848;28;1076;-52
2021/08/19 12:26:07;;;;;;;;;;;;;;;25.13;61.75;100676.81;5054441;28;1131;-52
2021/08/19 12:28:33;;;;;;;;;;;;;;;25.10;61.75;100680.69;5054432;28;1107;-52
2021/08/19 12:31:02;;;;;;;;;;;;;;;25.11;61.61;100676.09;5054283;28;1063;-52
2021/08/19 12:33:33;;;;;;;;;;;;;;;25.12;61.29;100680.50;5054287;28;1130;-53
2021/08/19 12:36:09;;;;;;;;;;;;;;;25.13;62.08;100688.47;5054631;28;1921;-52
2021/08/19 12:38:36;;;;;;;;;;;;;;;25.16;61.49;100679.97;5054139;28;1095;-52
2021/08/19 12:41:11;;;;;;;;;;;;;;;25.18;62.09;100672.50;5054018;28;1973;-52
2021/08/19 12:43:37;;;;;;;;;;;;;;;25.15;61.17;100666.66;5054359;28;1045;-53
2021/08/19 12:46:07;;;;;;;;;;;;;;;25.17;62.01;100670.84;5054105;28;1146;-52
2021/08/19 12:48:35;;;;;;;;;;;;;;;25.14;61.98;100670.34;5054610;28;1054;-52
2021/08/19 12:51:20;;;;;;;;;;;;;;;25.18;61.74;100672.50;5054017;28;1136;-53
2021/08/19 12:54:03;;;;;;;;;;;;;;;25.16;62.30;100654.78;5054116;28;1143;-53
2021/08/19 12:56:30;;;;;;;;;;;;;;;25.17;62.02;100654.59;5054484;28;1061;-52
2021/08/19 12:58:56;;;;;;;;;;;;;;;25.16;62.00;100657.50;5053905;28;1174;-53
2021/08/19 13:01:24;;;;;;;;;;;;;;;25.19;61.63;100654.44;5053648;28;2038;-53
2021/08/19 13:03:50;;;;;;;;;;;;;;;25.15;61.41;100658.53;5052560;28;1435;-53
2021/08/19 13:06:17;;;;;;;;;;;;;;;25.16;61.97;100650.19;5053729;28;1103;-53
2021/08/19 13:08:43;;;;;;;;;;;;;;;25.16;61.90;100649.38;5054056;28;1030;-53